sensor_id;sensor_type;location;lat;lon;timestamp;P1;durP1;ratioP1;P2;durP2;ratioP2
53801;SDS011;39709;53.334;6.534;2022-09-09T00:00:48;15.02;;;8.88;;
53801;SDS011;39709;53.334;6.534;2022-09-09T00:03:22;14.73;;;8.23;;
53801;SDS011;39709;53.334;6.534;2022-09-09T00:05:55;15.52;;;8.25;;
53801;SDS011;39709;53.334;6.534;2022-09-09T00:09:16;13.73;;;8.60;;
53801;SDS011;39709;53.334;6.534;2022-09-09T00:14:54;11.93;;;7.22;;
53801;SDS011;39709;53.334;6.534;2022-09-09T00:22:57;17.05;;;8.63;;
53801;SDS011;39709;53.334;6.534;2022-09-09T00:25:57;16.45;;;7.97;;
53801;SDS011;39709;53.334;6.534;2022-09-09T00:29:05;18.40;;;7.70;;
53801;SDS011;39709;53.334;6.534;2022-09-09T00:31:32;17.23;;;8.30;;
53801;SDS011;39709;53.334;6.534;2022-09-09T00:33:58;17.88;;;7.40;;
53801;SDS011;39709;53.334;6.534;2022-09-09T00:36:34;15.75;;;8.10;;
53801;SDS011;39709;53.334;6.534;2022-09-09T00:39:02;16.10;;;7.85;;
53801;SDS011;39709;53.334;6.534;2022-09-09T00:49:23;15.88;;;7.28;;
53801;SDS011;39709;53.334;6.534;2022-09-09T01:02:34;14.85;;;6.80;;
53801;SDS011;39709;53.334;6.534;2022-09-09T01:05:25;14.10;;;6.85;;
53801;SDS011;39709;53.334;6.534;2022-09-09T01:08:00;15.55;;;7.85;;
53801;SDS011;39709;53.334;6.534;2022-09-09T01:13:24;14.80;;;8.25;;
53801;SDS011;39709;53.334;6.534;2022-09-09T01:15:55;14.07;;;7.15;;
53801;SDS011;39709;53.334;6.534;2022-09-09T01:18:26;14.20;;;7.75;;
53801;SDS011;39709;53.334;6.534;2022-09-09T01:26:49;16.05;;;7.63;;
53801;SDS011;39709;53.334;6.534;2022-09-09T01:29:17;13.80;;;7.90;;
53801;SDS011;39709;53.334;6.534;2022-09-09T01:31:56;20.98;;;7.88;;
53801;SDS011;39709;53.334;6.534;2022-09-09T01:34:28;14.82;;;7.82;;
53801;SDS011;39709;53.334;6.534;2022-09-09T01:39:27;13.68;;;7.40;;
53801;SDS011;39709;53.334;6.534;2022-09-09T01:41:53;17.00;;;7.20;;
53801;SDS011;39709;53.334;6.534;2022-09-09T01:44:21;14.15;;;7.57;;
53801;SDS011;39709;53.334;6.534;2022-09-09T01:46:47;14.88;;;7.78;;
53801;SDS011;39709;53.334;6.534;2022-09-09T01:49:13;15.07;;;7.37;;
53801;SDS011;39709;53.334;6.534;2022-09-09T01:51:39;14.10;;;7.38;;
53801;SDS011;39709;53.334;6.534;2022-09-09T01:54:07;17.15;;;7.25;;
53801;SDS011;39709;53.334;6.534;2022-09-09T02:02:09;16.63;;;7.78;;
53801;SDS011;39709;53.334;6.534;2022-09-09T02:04:45;14.02;;;7.97;;
53801;SDS011;39709;53.334;6.534;2022-09-09T02:10:00;12.65;;;7.68;;
53801;SDS011;39709;53.334;6.534;2022-09-09T02:12:36;14.98;;;7.43;;
53801;SDS011;39709;53.334;6.534;2022-09-09T02:15:12;15.98;;;7.72;;
53801;SDS011;39709;53.334;6.534;2022-09-09T02:17:51;13.68;;;6.75;;
53801;SDS011;39709;53.334;6.534;2022-09-09T02:20:19;14.73;;;6.60;;
53801;SDS011;39709;53.334;6.534;2022-09-09T02:22:49;13.50;;;6.95;;
53801;SDS011;39709;53.334;6.534;2022-09-09T02:25:17;15.00;;;7.00;;
53801;SDS011;39709;53.334;6.534;2022-09-09T02:27:45;13.82;;;7.18;;
53801;SDS011;39709;53.334;6.534;2022-09-09T02:30:13;13.75;;;6.00;;
53801;SDS011;39709;53.334;6.534;2022-09-09T02:32:40;16.00;;;7.07;;
53801;SDS011;39709;53.334;6.534;2022-09-09T02:35:15;12.77;;;6.15;;
53801;SDS011;39709;53.334;6.534;2022-09-09T02:37:46;16.52;;;6.30;;
53801;SDS011;39709;53.334;6.534;2022-09-09T02:40:12;15.60;;;7.32;;
53801;SDS011;39709;53.334;6.534;2022-09-09T02:42:40;12.93;;;7.07;;
53801;SDS011;39709;53.334;6.534;2022-09-09T02:45:11;14.57;;;7.37;;
53801;SDS011;39709;53.334;6.534;2022-09-09T02:50:23;15.85;;;8.60;;
53801;SDS011;39709;53.334;6.534;2022-09-09T02:55:35;14.33;;;6.97;;
53801;SDS011;39709;53.334;6.534;2022-09-09T02:58:09;13.82;;;7.25;;
53801;SDS011;39709;53.334;6.534;2022-09-09T03:00:38;17.17;;;7.47;;
53801;SDS011;39709;53.334;6.534;2022-09-09T03:03:05;16.55;;;8.18;;
53801;SDS011;39709;53.334;6.534;2022-09-09T03:05:31;15.57;;;7.87;;
53801;SDS011;39709;53.334;6.534;2022-09-09T03:07:57;13.48;;;7.25;;
53801;SDS011;39709;53.334;6.534;2022-09-09T03:10:23;16.13;;;8.38;;
53801;SDS011;39709;53.334;6.534;2022-09-09T03:12:49;14.60;;;8.43;;
53801;SDS011;39709;53.334;6.534;2022-09-09T03:15:15;15.48;;;8.90;;
53801;SDS011;39709;53.334;6.534;2022-09-09T03:17:41;17.10;;;8.38;;
53801;SDS011;39709;53.334;6.534;2022-09-09T03:20:07;14.23;;;7.60;;
53801;SDS011;39709;53.334;6.534;2022-09-09T03:22:33;15.43;;;9.23;;
53801;SDS011;39709;53.334;6.534;2022-09-09T03:24:59;17.73;;;9.50;;
53801;SDS011;39709;53.334;6.534;2022-09-09T03:27:27;18.50;;;9.55;;
53801;SDS011;39709;53.334;6.534;2022-09-09T03:29:54;19.55;;;10.60;;
53801;SDS011;39709;53.334;6.534;2022-09-09T03:32:20;16.30;;;9.33;;
53801;SDS011;39709;53.334;6.534;2022-09-09T03:34:47;17.65;;;9.50;;
53801;SDS011;39709;53.334;6.534;2022-09-09T03:37:15;24.30;;;10.23;;
53801;SDS011;39709;53.334;6.534;2022-09-09T03:39:42;19.20;;;9.65;;
53801;SDS011;39709;53.334;6.534;2022-09-09T03:42:08;17.80;;;9.40;;
53801;SDS011;39709;53.334;6.534;2022-09-09T03:44:35;19.57;;;9.50;;
53801;SDS011;39709;53.334;6.534;2022-09-09T03:47:00;18.17;;;9.88;;
53801;SDS011;39709;53.334;6.534;2022-09-09T03:49:26;16.13;;;9.23;;
53801;SDS011;39709;53.334;6.534;2022-09-09T03:51:56;23.75;;;9.50;;
53801;SDS011;39709;53.334;6.534;2022-09-09T03:54:23;19.02;;;9.35;;
53801;SDS011;39709;53.334;6.534;2022-09-09T03:56:49;19.42;;;9.98;;
53801;SDS011;39709;53.334;6.534;2022-09-09T03:59:15;17.13;;;9.03;;
53801;SDS011;39709;53.334;6.534;2022-09-09T04:01:41;19.70;;;9.65;;
53801;SDS011;39709;53.334;6.534;2022-09-09T04:04:06;15.47;;;8.17;;
53801;SDS011;39709;53.334;6.534;2022-09-09T04:06:32;18.52;;;8.80;;
53801;SDS011;39709;53.334;6.534;2022-09-09T04:08:59;15.77;;;8.30;;
53801;SDS011;39709;53.334;6.534;2022-09-09T04:11:27;18.80;;;8.57;;
53801;SDS011;39709;53.334;6.534;2022-09-09T04:13:53;14.93;;;7.87;;
53801;SDS011;39709;53.334;6.534;2022-09-09T04:16:18;15.10;;;8.07;;
53801;SDS011;39709;53.334;6.534;2022-09-09T04:18:45;15.97;;;8.33;;
53801;SDS011;39709;53.334;6.534;2022-09-09T04:21:11;14.10;;;7.57;;
53801;SDS011;39709;53.334;6.534;2022-09-09T04:23:37;13.13;;;7.28;;
53801;SDS011;39709;53.334;6.534;2022-09-09T04:26:03;15.43;;;7.07;;
53801;SDS011;39709;53.334;6.534;2022-09-09T04:28:31;16.97;;;7.73;;
53801;SDS011;39709;53.334;6.534;2022-09-09T04:31:09;13.68;;;5.53;;
53801;SDS011;39709;53.334;6.534;2022-09-09T04:33:39;11.45;;;5.78;;
53801;SDS011;39709;53.334;6.534;2022-09-09T04:36:05;12.77;;;5.40;;
53801;SDS011;39709;53.334;6.534;2022-09-09T04:38:31;10.53;;;4.07;;
53801;SDS011;39709;53.334;6.534;2022-09-09T04:40:57;13.40;;;5.53;;
53801;SDS011;39709;53.334;6.534;2022-09-09T04:43:23;11.13;;;4.60;;
53801;SDS011;39709;53.334;6.534;2022-09-09T04:45:51;13.55;;;5.07;;
53801;SDS011;39709;53.334;6.534;2022-09-09T04:48:17;9.37;;;4.00;;
53801;SDS011;39709;53.334;6.534;2022-09-09T04:50:43;11.40;;;4.45;;
53801;SDS011;39709;53.334;6.534;2022-09-09T04:53:09;9.20;;;3.60;;
53801;SDS011;39709;53.334;6.534;2022-09-09T04:55:35;12.13;;;4.83;;
53801;SDS011;39709;53.334;6.534;2022-09-09T04:58:04;11.73;;;4.28;;
53801;SDS011;39709;53.334;6.534;2022-09-09T05:00:30;11.83;;;4.37;;
53801;SDS011;39709;53.334;6.534;2022-09-09T05:02:56;11.43;;;4.47;;
53801;SDS011;39709;53.334;6.534;2022-09-09T05:05:22;15.18;;;5.20;;
53801;SDS011;39709;53.334;6.534;2022-09-09T05:07:47;14.00;;;4.83;;
53801;SDS011;39709;53.334;6.534;2022-09-09T05:10:14;11.93;;;4.25;;
53801;SDS011;39709;53.334;6.534;2022-09-09T05:12:41;11.23;;;4.50;;
53801;SDS011;39709;53.334;6.534;2022-09-09T05:15:07;13.73;;;5.03;;
53801;SDS011;39709;53.334;6.534;2022-09-09T05:17:34;9.57;;;4.40;;
53801;SDS011;39709;53.334;6.534;2022-09-09T05:20:00;12.82;;;4.20;;
53801;SDS011;39709;53.334;6.534;2022-09-09T05:22:28;9.67;;;3.67;;
53801;SDS011;39709;53.334;6.534;2022-09-09T05:24:53;7.93;;;3.20;;
53801;SDS011;39709;53.334;6.534;2022-09-09T05:27:19;12.60;;;4.40;;
53801;SDS011;39709;53.334;6.534;2022-09-09T05:29:45;9.02;;;3.72;;
53801;SDS011;39709;53.334;6.534;2022-09-09T05:32:11;12.63;;;5.70;;
53801;SDS011;39709;53.334;6.534;2022-09-09T05:34:38;9.85;;;4.72;;
53801;SDS011;39709;53.334;6.534;2022-09-09T05:37:04;11.25;;;4.13;;
53801;SDS011;39709;53.334;6.534;2022-09-09T05:39:31;10.60;;;3.40;;
53801;SDS011;39709;53.334;6.534;2022-09-09T05:41:58;11.90;;;4.20;;
53801;SDS011;39709;53.334;6.534;2022-09-09T05:44:23;12.52;;;3.90;;
53801;SDS011;39709;53.334;6.534;2022-09-09T05:46:52;9.73;;;4.22;;
53801;SDS011;39709;53.334;6.534;2022-09-09T05:49:19;11.90;;;4.67;;
53801;SDS011;39709;53.334;6.534;2022-09-09T05:51:45;9.38;;;4.78;;
53801;SDS011;39709;53.334;6.534;2022-09-09T05:54:12;10.65;;;4.57;;
53801;SDS011;39709;53.334;6.534;2022-09-09T05:56:40;12.25;;;5.55;;
53801;SDS011;39709;53.334;6.534;2022-09-09T05:59:06;13.77;;;6.27;;
53801;SDS011;39709;53.334;6.534;2022-09-09T06:01:33;10.45;;;4.75;;
53801;SDS011;39709;53.334;6.534;2022-09-09T06:04:00;14.15;;;6.78;;
53801;SDS011;39709;53.334;6.534;2022-09-09T06:06:27;13.85;;;5.80;;
53801;SDS011;39709;53.334;6.534;2022-09-09T06:09:01;15.30;;;6.03;;
53801;SDS011;39709;53.334;6.534;2022-09-09T06:11:29;14.57;;;6.55;;
53801;SDS011;39709;53.334;6.534;2022-09-09T06:13:56;13.80;;;6.50;;
53801;SDS011;39709;53.334;6.534;2022-09-09T06:16:23;14.18;;;6.35;;
53801;SDS011;39709;53.334;6.534;2022-09-09T06:18:54;13.65;;;6.30;;
53801;SDS011;39709;53.334;6.534;2022-09-09T06:21:22;15.07;;;5.80;;
53801;SDS011;39709;53.334;6.534;2022-09-09T06:23:48;15.52;;;6.68;;
53801;SDS011;39709;53.334;6.534;2022-09-09T06:26:15;11.30;;;5.28;;
53801;SDS011;39709;53.334;6.534;2022-09-09T06:28:50;12.57;;;6.43;;
53801;SDS011;39709;53.334;6.534;2022-09-09T06:31:19;12.48;;;6.45;;
53801;SDS011;39709;53.334;6.534;2022-09-09T06:33:49;13.63;;;5.20;;
53801;SDS011;39709;53.334;6.534;2022-09-09T06:36:18;13.15;;;5.80;;
53801;SDS011;39709;53.334;6.534;2022-09-09T06:38:45;13.05;;;6.85;;
53801;SDS011;39709;53.334;6.534;2022-09-09T06:41:12;10.95;;;5.20;;
53801;SDS011;39709;53.334;6.534;2022-09-09T06:43:39;7.72;;;3.67;;
53801;SDS011;39709;53.334;6.534;2022-09-09T06:46:06;13.63;;;5.57;;
53801;SDS011;39709;53.334;6.534;2022-09-09T06:48:35;15.40;;;6.90;;
53801;SDS011;39709;53.334;6.534;2022-09-09T06:51:07;14.73;;;6.78;;
53801;SDS011;39709;53.334;6.534;2022-09-09T06:53:38;13.68;;;5.97;;
53801;SDS011;39709;53.334;6.534;2022-09-09T06:58:53;14.55;;;6.53;;
53801;SDS011;39709;53.334;6.534;2022-09-09T07:01:20;11.70;;;5.93;;
53801;SDS011;39709;53.334;6.534;2022-09-09T07:03:49;13.98;;;6.15;;
53801;SDS011;39709;53.334;6.534;2022-09-09T07:06:20;13.48;;;6.80;;
53801;SDS011;39709;53.334;6.534;2022-09-09T07:08:50;14.17;;;6.30;;
53801;SDS011;39709;53.334;6.534;2022-09-09T07:11:17;12.43;;;6.78;;
53801;SDS011;39709;53.334;6.534;2022-09-09T07:13:44;11.52;;;4.95;;
53801;SDS011;39709;53.334;6.534;2022-09-09T07:16:11;13.47;;;6.13;;
53801;SDS011;39709;53.334;6.534;2022-09-09T07:18:38;11.88;;;6.07;;
53801;SDS011;39709;53.334;6.534;2022-09-09T07:21:04;13.45;;;6.50;;
53801;SDS011;39709;53.334;6.534;2022-09-09T07:23:31;14.18;;;6.30;;
53801;SDS011;39709;53.334;6.534;2022-09-09T07:25:57;13.38;;;6.68;;
53801;SDS011;39709;53.334;6.534;2022-09-09T07:28:24;9.13;;;4.63;;
53801;SDS011;39709;53.334;6.534;2022-09-09T07:30:58;13.07;;;6.03;;
53801;SDS011;39709;53.334;6.534;2022-09-09T07:33:28;11.25;;;5.00;;
53801;SDS011;39709;53.334;6.534;2022-09-09T07:36:02;11.77;;;5.10;;
53801;SDS011;39709;53.334;6.534;2022-09-09T07:38:48;10.95;;;5.22;;
53801;SDS011;39709;53.334;6.534;2022-09-09T07:41:21;10.90;;;5.97;;
53801;SDS011;39709;53.334;6.534;2022-09-09T07:43:59;11.80;;;4.95;;
53801;SDS011;39709;53.334;6.534;2022-09-09T07:46:29;12.00;;;5.50;;
53801;SDS011;39709;53.334;6.534;2022-09-09T07:48:55;11.73;;;5.10;;
53801;SDS011;39709;53.334;6.534;2022-09-09T07:51:25;10.73;;;5.20;;
53801;SDS011;39709;53.334;6.534;2022-09-09T07:53:56;11.43;;;4.88;;
53801;SDS011;39709;53.334;6.534;2022-09-09T07:56:24;10.35;;;4.80;;
53801;SDS011;39709;53.334;6.534;2022-09-09T07:58:52;10.07;;;4.57;;
53801;SDS011;39709;53.334;6.534;2022-09-09T08:01:20;9.55;;;4.22;;
53801;SDS011;39709;53.334;6.534;2022-09-09T08:03:55;12.93;;;5.23;;
53801;SDS011;39709;53.334;6.534;2022-09-09T08:06:26;10.63;;;4.88;;
53801;SDS011;39709;53.334;6.534;2022-09-09T08:08:54;10.25;;;4.93;;
53801;SDS011;39709;53.334;6.534;2022-09-09T08:11:20;7.25;;;3.13;;
53801;SDS011;39709;53.334;6.534;2022-09-09T08:13:48;10.35;;;4.47;;
53801;SDS011;39709;53.334;6.534;2022-09-09T08:16:25;22.30;;;4.97;;
53801;SDS011;39709;53.334;6.534;2022-09-09T08:18:52;9.85;;;3.95;;
53801;SDS011;39709;53.334;6.534;2022-09-09T08:21:22;11.45;;;4.25;;
53801;SDS011;39709;53.334;6.534;2022-09-09T08:23:50;11.43;;;4.35;;
53801;SDS011;39709;53.334;6.534;2022-09-09T08:26:23;9.32;;;4.38;;
53801;SDS011;39709;53.334;6.534;2022-09-09T08:28:52;11.10;;;4.17;;
53801;SDS011;39709;53.334;6.534;2022-09-09T08:31:19;9.50;;;3.70;;
53801;SDS011;39709;53.334;6.534;2022-09-09T08:33:47;10.88;;;4.32;;
53801;SDS011;39709;53.334;6.534;2022-09-09T08:36:14;7.72;;;3.42;;
53801;SDS011;39709;53.334;6.534;2022-09-09T08:38:47;8.15;;;2.92;;
53801;SDS011;39709;53.334;6.534;2022-09-09T08:41:30;10.13;;;3.67;;
53801;SDS011;39709;53.334;6.534;2022-09-09T08:44:01;9.85;;;3.95;;
53801;SDS011;39709;53.334;6.534;2022-09-09T08:51:47;9.23;;;3.65;;
53801;SDS011;39709;53.334;6.534;2022-09-09T08:54:14;10.45;;;3.67;;
53801;SDS011;39709;53.334;6.534;2022-09-09T08:56:40;8.95;;;4.13;;
53801;SDS011;39709;53.334;6.534;2022-09-09T08:59:07;10.13;;;4.23;;
53801;SDS011;39709;53.334;6.534;2022-09-09T09:04:56;9.63;;;4.47;;
53801;SDS011;39709;53.334;6.534;2022-09-09T09:07:36;12.50;;;3.78;;
53801;SDS011;39709;53.334;6.534;2022-09-09T09:12:55;8.98;;;3.38;;
53801;SDS011;39709;53.334;6.534;2022-09-09T09:15:40;9.35;;;3.50;;
53801;SDS011;39709;53.334;6.534;2022-09-09T09:18:08;11.50;;;3.95;;
53801;SDS011;39709;53.334;6.534;2022-09-09T09:23:21;9.67;;;3.87;;
53801;SDS011;39709;53.334;6.534;2022-09-09T09:25:49;11.38;;;3.78;;
53801;SDS011;39709;53.334;6.534;2022-09-09T09:30:57;6.68;;;2.00;;
53801;SDS011;39709;53.334;6.534;2022-09-09T09:36:08;9.90;;;3.17;;
53801;SDS011;39709;53.334;6.534;2022-09-09T09:38:34;8.52;;;2.97;;
53801;SDS011;39709;53.334;6.534;2022-09-09T09:41:00;10.95;;;2.80;;
53801;SDS011;39709;53.334;6.534;2022-09-09T09:43:31;11.23;;;3.78;;
53801;SDS011;39709;53.334;6.534;2022-09-09T09:45:58;11.13;;;4.10;;
53801;SDS011;39709;53.334;6.534;2022-09-09T09:48:25;8.82;;;3.13;;
53801;SDS011;39709;53.334;6.534;2022-09-09T09:53:21;7.03;;;3.25;;
53801;SDS011;39709;53.334;6.534;2022-09-09T09:55:54;7.63;;;3.80;;
53801;SDS011;39709;53.334;6.534;2022-09-09T09:58:29;3.03;;;0.83;;
53801;SDS011;39709;53.334;6.534;2022-09-09T10:00:58;9.48;;;3.28;;
53801;SDS011;39709;53.334;6.534;2022-09-09T10:03:29;9.45;;;3.33;;
53801;SDS011;39709;53.334;6.534;2022-09-09T10:05:56;8.40;;;2.67;;
53801;SDS011;39709;53.334;6.534;2022-09-09T10:08:25;10.90;;;3.40;;
53801;SDS011;39709;53.334;6.534;2022-09-09T10:19:41;11.68;;;3.35;;
53801;SDS011;39709;53.334;6.534;2022-09-09T10:27:38;10.80;;;2.17;;
53801;SDS011;39709;53.334;6.534;2022-09-09T10:33:19;7.60;;;2.53;;
53801;SDS011;39709;53.334;6.534;2022-09-09T10:38:39;7.33;;;1.97;;
53801;SDS011;39709;53.334;6.534;2022-09-09T10:44:39;8.40;;;2.30;;
53801;SDS011;39709;53.334;6.534;2022-09-09T10:50:10;12.75;;;2.55;;
53801;SDS011;39709;53.334;6.534;2022-09-09T10:55:56;11.98;;;1.77;;
53801;SDS011;39709;53.334;6.534;2022-09-09T11:01:20;8.68;;;2.10;;
53801;SDS011;39709;53.334;6.534;2022-09-09T11:04:17;5.97;;;1.33;;
53801;SDS011;39709;53.334;6.534;2022-09-09T11:06:50;11.47;;;2.00;;
53801;SDS011;39709;53.334;6.534;2022-09-09T11:09:24;12.07;;;2.08;;
53801;SDS011;39709;53.334;6.534;2022-09-09T11:11:54;6.05;;;1.45;;
53801;SDS011;39709;53.334;6.534;2022-09-09T11:14:22;10.23;;;1.60;;
53801;SDS011;39709;53.334;6.534;2022-09-09T11:17:02;7.03;;;1.50;;
53801;SDS011;39709;53.334;6.534;2022-09-09T11:19:35;9.07;;;1.50;;
53801;SDS011;39709;53.334;6.534;2022-09-09T11:22:05;7.68;;;1.15;;
53801;SDS011;39709;53.334;6.534;2022-09-09T11:24:35;5.28;;;1.33;;
53801;SDS011;39709;53.334;6.534;2022-09-09T11:27:15;6.93;;;1.42;;
53801;SDS011;39709;53.334;6.534;2022-09-09T11:30:21;5.10;;;1.20;;
53801;SDS011;39709;53.334;6.534;2022-09-09T11:38:46;6.82;;;1.10;;
53801;SDS011;39709;53.334;6.534;2022-09-09T11:41:16;7.53;;;1.30;;
53801;SDS011;39709;53.334;6.534;2022-09-09T11:43:46;7.45;;;1.10;;
53801;SDS011;39709;53.334;6.534;2022-09-09T11:46:13;8.20;;;1.30;;
53801;SDS011;39709;53.334;6.534;2022-09-09T11:48:41;6.10;;;1.30;;
53801;SDS011;39709;53.334;6.534;2022-09-09T11:51:26;8.85;;;1.38;;
53801;SDS011;39709;53.334;6.534;2022-09-09T11:54:00;7.40;;;1.42;;
53801;SDS011;39709;53.334;6.534;2022-09-09T11:56:31;7.10;;;1.40;;
53801;SDS011;39709;53.334;6.534;2022-09-09T11:59:29;8.03;;;1.10;;
53801;SDS011;39709;53.334;6.534;2022-09-09T12:01:57;8.05;;;1.25;;
53801;SDS011;39709;53.334;6.534;2022-09-09T12:12:37;8.27;;;1.83;;
53801;SDS011;39709;53.334;6.534;2022-09-09T12:17:37;6.95;;;1.10;;
53801;SDS011;39709;53.334;6.534;2022-09-09T12:33:42;5.43;;;1.00;;
53801;SDS011;39709;53.334;6.534;2022-09-09T12:36:15;7.53;;;1.13;;
53801;SDS011;39709;53.334;6.534;2022-09-09T12:38:44;9.40;;;1.23;;
53801;SDS011;39709;53.334;6.534;2022-09-09T12:41:23;5.97;;;0.95;;
53801;SDS011;39709;53.334;6.534;2022-09-09T12:43:51;7.97;;;1.40;;
53801;SDS011;39709;53.334;6.534;2022-09-09T12:49:02;6.55;;;2.00;;
53801;SDS011;39709;53.334;6.534;2022-09-09T12:51:30;7.68;;;1.60;;
53801;SDS011;39709;53.334;6.534;2022-09-09T12:53:57;6.65;;;0.80;;
53801;SDS011;39709;53.334;6.534;2022-09-09T12:56:28;9.05;;;1.20;;
53801;SDS011;39709;53.334;6.534;2022-09-09T12:58:57;6.87;;;0.83;;
53801;SDS011;39709;53.334;6.534;2022-09-09T13:03:53;7.95;;;1.30;;
53801;SDS011;39709;53.334;6.534;2022-09-09T13:06:21;5.80;;;1.17;;
53801;SDS011;39709;53.334;6.534;2022-09-09T13:08:52;7.18;;;1.10;;
53801;SDS011;39709;53.334;6.534;2022-09-09T13:11:23;8.67;;;1.20;;
53801;SDS011;39709;53.334;6.534;2022-09-09T13:13:54;9.35;;;1.30;;
53801;SDS011;39709;53.334;6.534;2022-09-09T13:16:25;5.85;;;1.10;;
53801;SDS011;39709;53.334;6.534;2022-09-09T13:18:57;7.72;;;1.30;;
53801;SDS011;39709;53.334;6.534;2022-09-09T13:21:35;8.43;;;1.50;;
53801;SDS011;39709;53.334;6.534;2022-09-09T13:24:05;4.77;;;1.30;;
53801;SDS011;39709;53.334;6.534;2022-09-09T13:26:53;5.75;;;1.10;;
53801;SDS011;39709;53.334;6.534;2022-09-09T13:29:21;5.25;;;1.17;;
53801;SDS011;39709;53.334;6.534;2022-09-09T13:31:47;9.03;;;1.20;;
53801;SDS011;39709;53.334;6.534;2022-09-09T13:34:14;8.40;;;1.30;;
53801;SDS011;39709;53.334;6.534;2022-09-09T13:37:01;7.70;;;1.60;;
53801;SDS011;39709;53.334;6.534;2022-09-09T13:39:30;9.35;;;1.30;;
53801;SDS011;39709;53.334;6.534;2022-09-09T13:41:59;5.75;;;1.05;;
53801;SDS011;39709;53.334;6.534;2022-09-09T13:44:35;7.93;;;1.20;;
53801;SDS011;39709;53.334;6.534;2022-09-09T13:47:17;6.70;;;1.40;;
53801;SDS011;39709;53.334;6.534;2022-09-09T13:49:44;7.93;;;1.92;;
53801;SDS011;39709;53.334;6.534;2022-09-09T13:52:15;7.30;;;1.55;;
53801;SDS011;39709;53.334;6.534;2022-09-09T13:54:43;6.65;;;1.35;;
53801;SDS011;39709;53.334;6.534;2022-09-09T13:57:17;6.63;;;1.30;;
53801;SDS011;39709;53.334;6.534;2022-09-09T13:59:44;8.03;;;1.57;;
53801;SDS011;39709;53.334;6.534;2022-09-09T14:02:11;6.50;;;1.30;;
53801;SDS011;39709;53.334;6.534;2022-09-09T14:04:36;4.97;;;1.00;;
53801;SDS011;39709;53.334;6.534;2022-09-09T14:07:02;9.13;;;1.47;;
53801;SDS011;39709;53.334;6.534;2022-09-09T14:09:28;7.43;;;1.75;;
53801;SDS011;39709;53.334;6.534;2022-09-09T14:11:54;6.30;;;1.17;;
53801;SDS011;39709;53.334;6.534;2022-09-09T14:14:22;10.32;;;1.60;;
53801;SDS011;39709;53.334;6.534;2022-09-09T14:16:48;5.57;;;1.13;;
53801;SDS011;39709;53.334;6.534;2022-09-09T14:19:14;7.33;;;1.60;;
53801;SDS011;39709;53.334;6.534;2022-09-09T14:21:39;8.10;;;1.37;;
53801;SDS011;39709;53.334;6.534;2022-09-09T14:24:05;7.93;;;1.20;;
53801;SDS011;39709;53.334;6.534;2022-09-09T14:26:31;6.68;;;1.50;;
53801;SDS011;39709;53.334;6.534;2022-09-09T14:28:57;8.30;;;1.63;;
53801;SDS011;39709;53.334;6.534;2022-09-09T14:31:23;7.18;;;1.40;;
53801;SDS011;39709;53.334;6.534;2022-09-09T14:33:50;4.97;;;1.15;;
53801;SDS011;39709;53.334;6.534;2022-09-09T14:36:16;7.80;;;1.23;;
53801;SDS011;39709;53.334;6.534;2022-09-09T14:38:41;6.35;;;1.20;;
53801;SDS011;39709;53.334;6.534;2022-09-09T14:41:11;6.45;;;1.38;;
53801;SDS011;39709;53.334;6.534;2022-09-09T14:43:38;6.20;;;0.87;;
53801;SDS011;39709;53.334;6.534;2022-09-09T14:46:08;5.10;;;0.90;;
53801;SDS011;39709;53.334;6.534;2022-09-09T14:48:35;6.18;;;1.27;;
53801;SDS011;39709;53.334;6.534;2022-09-09T14:51:21;4.93;;;1.08;;
53801;SDS011;39709;53.334;6.534;2022-09-09T14:53:52;3.40;;;0.90;;
53801;SDS011;39709;53.334;6.534;2022-09-09T14:56:19;7.97;;;1.00;;
53801;SDS011;39709;53.334;6.534;2022-09-09T14:58:48;7.50;;;1.05;;
53801;SDS011;39709;53.334;6.534;2022-09-09T15:01:15;5.45;;;0.98;;
53801;SDS011;39709;53.334;6.534;2022-09-09T15:03:43;6.85;;;1.00;;
53801;SDS011;39709;53.334;6.534;2022-09-09T15:06:17;9.48;;;1.60;;
53801;SDS011;39709;53.334;6.534;2022-09-09T15:08:44;7.40;;;1.40;;
53801;SDS011;39709;53.334;6.534;2022-09-09T15:11:11;7.03;;;1.30;;
53801;SDS011;39709;53.334;6.534;2022-09-09T15:13:38;7.18;;;1.67;;
53801;SDS011;39709;53.334;6.534;2022-09-09T15:16:12;8.85;;;1.90;;
53801;SDS011;39709;53.334;6.534;2022-09-09T15:18:40;5.57;;;0.90;;
53801;SDS011;39709;53.334;6.534;2022-09-09T15:21:14;3.90;;;0.83;;
53801;SDS011;39709;53.334;6.534;2022-09-09T15:23:41;3.80;;;0.65;;
53801;SDS011;39709;53.334;6.534;2022-09-09T15:26:08;2.45;;;0.50;;
53801;SDS011;39709;53.334;6.534;2022-09-09T15:28:34;4.80;;;0.85;;
53801;SDS011;39709;53.334;6.534;2022-09-09T15:31:06;3.38;;;0.60;;
53801;SDS011;39709;53.334;6.534;2022-09-09T15:33:34;3.37;;;0.80;;
53801;SDS011;39709;53.334;6.534;2022-09-09T15:38:44;3.72;;;0.70;;
53801;SDS011;39709;53.334;6.534;2022-09-09T15:41:11;6.80;;;0.80;;
53801;SDS011;39709;53.334;6.534;2022-09-09T15:43:37;6.75;;;0.85;;
53801;SDS011;39709;53.334;6.534;2022-09-09T15:46:24;6.93;;;1.03;;
53801;SDS011;39709;53.334;6.534;2022-09-09T15:49:19;6.82;;;1.60;;
53801;SDS011;39709;53.334;6.534;2022-09-09T15:51:47;5.70;;;0.90;;
53801;SDS011;39709;53.334;6.534;2022-09-09T15:54:19;4.20;;;1.10;;
53801;SDS011;39709;53.334;6.534;2022-09-09T15:56:51;4.93;;;1.10;;
53801;SDS011;39709;53.334;6.534;2022-09-09T15:59:20;6.57;;;1.02;;
53801;SDS011;39709;53.334;6.534;2022-09-09T16:01:50;6.03;;;1.30;;
53801;SDS011;39709;53.334;6.534;2022-09-09T16:04:19;6.18;;;1.20;;
53801;SDS011;39709;53.334;6.534;2022-09-09T16:06:51;5.38;;;1.35;;
53801;SDS011;39709;53.334;6.534;2022-09-09T16:09:23;7.60;;;1.20;;
53801;SDS011;39709;53.334;6.534;2022-09-09T16:11:49;6.03;;;1.13;;
53801;SDS011;39709;53.334;6.534;2022-09-09T16:14:18;4.93;;;1.20;;
53801;SDS011;39709;53.334;6.534;2022-09-09T16:16:44;4.78;;;1.42;;
53801;SDS011;39709;53.334;6.534;2022-09-09T16:19:10;6.17;;;0.83;;
53801;SDS011;39709;53.334;6.534;2022-09-09T16:21:41;4.68;;;1.10;;
53801;SDS011;39709;53.334;6.534;2022-09-09T16:24:10;6.15;;;1.38;;
53801;SDS011;39709;53.334;6.534;2022-09-09T16:26:38;6.82;;;1.27;;
53801;SDS011;39709;53.334;6.534;2022-09-09T16:29:07;4.53;;;1.15;;
53801;SDS011;39709;53.334;6.534;2022-09-09T16:31:33;5.17;;;1.20;;
53801;SDS011;39709;53.334;6.534;2022-09-09T16:34:00;6.75;;;1.40;;
53801;SDS011;39709;53.334;6.534;2022-09-09T16:36:29;5.30;;;1.30;;
53801;SDS011;39709;53.334;6.534;2022-09-09T16:38:58;6.07;;;1.20;;
53801;SDS011;39709;53.334;6.534;2022-09-09T16:41:25;4.67;;;1.40;;
53801;SDS011;39709;53.334;6.534;2022-09-09T16:43:56;8.55;;;1.50;;
53801;SDS011;39709;53.334;6.534;2022-09-09T16:46:24;6.25;;;1.30;;
53801;SDS011;39709;53.334;6.534;2022-09-09T16:48:52;6.30;;;1.50;;
53801;SDS011;39709;53.334;6.534;2022-09-09T16:51:19;7.50;;;1.37;;
53801;SDS011;39709;53.334;6.534;2022-09-09T16:53:47;4.20;;;1.10;;
53801;SDS011;39709;53.334;6.534;2022-09-09T16:56:14;4.47;;;1.15;;
53801;SDS011;39709;53.334;6.534;2022-09-09T16:58:41;6.10;;;1.42;;
53801;SDS011;39709;53.334;6.534;2022-09-09T17:01:08;4.30;;;1.40;;
53801;SDS011;39709;53.334;6.534;2022-09-09T17:03:35;4.68;;;1.23;;
53801;SDS011;39709;53.334;6.534;2022-09-09T17:06:02;3.80;;;1.02;;
53801;SDS011;39709;53.334;6.534;2022-09-09T17:08:29;6.25;;;1.20;;
53801;SDS011;39709;53.334;6.534;2022-09-09T17:10:55;5.43;;;0.90;;
53801;SDS011;39709;53.334;6.534;2022-09-09T17:13:21;5.07;;;1.23;;
53801;SDS011;39709;53.334;6.534;2022-09-09T17:15:47;4.93;;;1.00;;
53801;SDS011;39709;53.334;6.534;2022-09-09T17:18:13;6.77;;;1.10;;
53801;SDS011;39709;53.334;6.534;2022-09-09T17:20:39;10.95;;;2.13;;
53801;SDS011;39709;53.334;6.534;2022-09-09T17:23:06;5.38;;;0.73;;